Time;durP1;ratioP1;P1;durP2;ratioP2;P2;SDS_P1;SDS_P2;PMS_P1;PMS_P2;Temp;Humidity;BMP_temperature;BMP_pressure;BME280_temperature;BME280_humidity;BME280_pressure;Samples;Min_cycle;Max_cycle;Signal;HPM_P1;HPM_P2
2024/01/12 00:02:11;;;;;;;6.00;5.13;;;0.50;99.90;;;;;;5018501;28;20052;-59
2024/01/12 00:04:36;;;;;;;6.30;5.72;;;0.50;99.90;;;;;;5036066;28;20041;-63
2024/01/12 00:07:02;;;;;;;5.25;4.85;;;0.50;99.90;;;;;;5036043;28;20546;-64
2024/01/12 00:09:28;;;;;;;5.47;4.97;;;0.50;99.90;;;;;;5036062;28;20084;-65
2024/01/12 00:11:54;;;;;;;5.63;4.60;;;0.50;99.90;;;;;;5035987;28;20460;-64
2024/01/12 00:14:19;;;;;;;4.85;3.92;;;0.50;99.90;;;;;;5035926;28;20500;-63
2024/01/12 00:16:48;;;;;;;5.50;4.63;;;0.60;99.90;;;;;;5036044;28;20034;-63
2024/01/12 00:19:14;;;;;;;5.18;4.40;;;0.60;99.90;;;;;;5035635;28;20072;-63
2024/01/12 00:21:42;;;;;;;5.97;4.95;;;0.70;99.90;;;;;;5017824;28;20460;-63
2024/01/12 00:24:15;;;;;;;6.53;5.13;;;1.30;99.90;;;;;;5035347;28;20058;-63
2024/01/12 00:26:54;;;;;;;6.75;4.63;;;0.70;99.90;;;;;;5017829;28;20408;-58
2024/01/12 00:29:20;;;;;;;5.15;4.65;;;0.70;99.90;;;;;;5035745;28;20052;-58
2024/01/12 00:31:45;;;;;;;5.25;3.90;;;0.70;99.90;;;;;;5035585;28;20037;-59
2024/01/12 00:34:11;;;;;;;4.78;4.22;;;0.70;99.90;;;;;;5035550;28;20088;-59
2024/01/12 00:36:37;;;;;;;5.80;4.93;;;0.70;99.90;;;;;;5035311;28;20116;-59
2024/01/12 00:39:03;;;;;;;5.15;4.05;;;0.80;99.90;;;;;;5017508;28;20520;-59
2024/01/12 00:41:30;;;;;;;4.82;4.28;;;0.70;99.90;;;;;;5035211;28;20056;-59
2024/01/12 00:43:56;;;;;;;6.75;4.30;;;0.70;99.90;;;;;;5035467;28;20440;-59
2024/01/12 00:46:22;;;;;;;6.28;4.90;;;0.70;99.90;;;;;;5035083;28;20037;-58
2024/01/12 00:48:49;;;;;;;5.20;4.03;;;0.70;99.90;;;;;;5035345;28;20045;-59
2024/01/12 00:51:15;;;;;;;4.90;4.00;;;0.70;99.90;;;;;;5034948;28;20490;-59
2024/01/12 00:53:41;;;;;;;3.85;3.40;;;0.80;99.90;;;;;;5017182;28;20077;-61
2024/01/12 00:56:07;;;;;;;4.65;4.10;;;0.80;99.90;;;;;;5035001;28;20041;-62
2024/01/12 00:58:33;;;;;;;4.13;3.72;;;0.90;99.90;;;;;;5034887;28;20037;-62
2024/01/12 01:00:59;;;;;;;5.43;3.67;;;0.90;99.90;;;;;;5034760;28;20096;-61
2024/01/12 01:03:25;;;;;;;3.92;3.40;;;0.90;99.90;;;;;;5034802;28;20481;-62
2024/01/12 01:05:51;;;;;;;4.20;3.45;;;0.90;99.90;;;;;;5034692;28;20117;-61
2024/01/12 01:08:17;;;;;;;3.67;3.28;;;0.90;99.90;;;;;;5034629;28;20069;-62
2024/01/12 01:10:43;;;;;;;4.90;3.65;;;0.90;99.90;;;;;;5034902;28;20088;-61
2024/01/12 01:13:09;;;;;;;3.63;3.33;;;1.00;99.90;;;;;;5034897;28;20109;-61
2024/01/12 01:15:35;;;;;;;5.78;3.90;;;1.00;99.90;;;;;;5034596;28;20037;-63
2024/01/12 01:18:01;;;;;;;4.10;2.80;;;1.00;99.90;;;;;;5034885;28;20037;-62
2024/01/12 01:20:26;;;;;;;4.10;2.80;;;1.10;99.90;;;;;;5034928;28;20550;-61
2024/01/12 01:22:52;;;;;;;4.10;2.92;;;1.30;99.90;;;;;;5034714;28;20049;-62
2024/01/12 01:25:25;;;;;;;3.10;2.80;;;1.10;99.90;;;;;;5016256;28;20501;-62
2024/01/12 01:27:51;;;;;;;3.85;2.83;;;1.20;99.90;;;;;;5034625;28;20507;-62
2024/01/12 01:30:16;;;;;;;3.05;2.72;;;1.20;99.90;;;;;;5034369;28;20037;-62
2024/01/12 01:32:42;;;;;;;3.67;2.90;;;1.20;99.90;;;;;;5016513;28;20543;-65
2024/01/12 01:35:08;;;;;;;3.13;2.63;;;1.20;99.90;;;;;;5034207;28;20120;-62
2024/01/12 01:37:33;;;;;;;4.35;2.67;;;1.30;99.90;;;;;;5034347;28;20041;-61
2024/01/12 01:40:01;;;;;;;3.35;2.45;;;1.30;99.90;;;;;;5034103;28;20489;-61
2024/01/12 01:42:27;;;;;;;3.60;2.28;;;1.40;99.90;;;;;;5034023;28;20087;-61
2024/01/12 01:44:52;;;;;;;3.15;2.53;;;1.40;99.90;;;;;;5034296;28;20033;-62
2024/01/12 01:47:18;;;;;;;4.22;2.70;;;1.50;99.90;;;;;;5034008;28;20110;-61
2024/01/12 01:49:44;;;;;;;3.78;2.90;;;1.40;99.90;;;;;;5033845;28;20560;-61
2024/01/12 01:52:10;;;;;;;5.40;2.38;;;1.40;99.90;;;;;;5034092;28;20106;-61
2024/01/12 01:54:36;;;;;;;3.58;2.50;;;1.50;99.90;;;;;;5033753;28;20038;-62
2024/01/12 01:57:02;;;;;;;4.68;2.63;;;1.40;99.90;;;;;;5034050;28;20040;-61
2024/01/12 01:59:27;;;;;;;3.58;2.22;;;1.40;99.90;;;;;;5033964;28;20481;-65
2024/01/12 02:01:53;;;;;;;4.25;2.40;;;1.50;99.90;;;;;;5033964;28;20044;-62
2024/01/12 02:04:20;;;;;;;2.25;2.05;;;2.00;99.90;;;;;;5033810;28;20044;-62
2024/01/12 02:06:45;;;;;;;3.25;2.70;;;1.50;99.90;;;;;;5033975;28;20039;-66
2024/01/12 02:09:11;;;;;;;2.83;1.90;;;1.40;99.90;;;;;;5015933;28;20515;-67
2024/01/12 02:11:37;;;;;;;4.53;2.60;;;1.50;99.90;;;;;;5015475;28;20050;-67
2024/01/12 02:14:06;;;;;;;3.45;2.28;;;1.50;99.90;;;;;;5033017;28;20067;-68
2024/01/12 02:16:36;;;;;;;2.40;1.90;;;1.50;99.90;;;;;;5033495;28;20398;-67
2024/01/12 02:19:03;;;;;;;3.83;2.42;;;1.60;99.90;;;;;;5016005;28;20072;-67
2024/01/12 02:21:29;;;;;;;2.72;1.73;;;1.70;99.90;;;;;;5033389;28;20049;-67
2024/01/12 02:23:55;;;;;;;3.17;2.03;;;1.60;99.90;;;;;;5015866;28;20095;-67
2024/01/12 02:26:20;;;;;;;2.13;1.90;;;1.70;99.90;;;;;;5015175;28;20057;-67
2024/01/12 02:28:52;;;;;;;2.85;2.08;;;1.70;99.90;;;;;;5015528;28;20084;-62
2024/01/12 02:31:18;;;;;;;2.58;1.80;;;1.80;99.90;;;;;;5033314;28;20516;-62
2024/01/12 02:33:47;;;;;;;2.95;1.90;;;1.70;99.90;;;;;;5033118;28;20041;-62
2024/01/12 02:36:13;;;;;;;2.65;2.10;;;1.70;99.90;;;;;;5033638;28;20590;-62
2024/01/12 02:38:39;;;;;;;3.20;2.00;;;1.70;99.90;;;;;;5033051;28;20041;-61
2024/01/12 02:41:04;;;;;;;3.58;1.95;;;1.80;99.90;;;;;;5033071;28;20038;-62
2024/01/12 02:43:30;;;;;;;2.03;1.75;;;1.70;99.90;;;;;;5033265;28;20037;-62
2024/01/12 02:45:56;;;;;;;2.25;1.73;;;1.70;99.90;;;;;;5015634;28;20112;-62
2024/01/12 02:48:21;;;;;;;2.30;1.95;;;1.70;99.90;;;;;;5033254;28;20045;-65
2024/01/12 02:50:47;;;;;;;2.80;1.73;;;1.70;99.90;;;;;;5015238;28;20184;-62
2024/01/12 02:53:13;;;;;;;3.28;1.83;;;3.10;99.90;;;;;;5032911;28;20116;-62
2024/01/12 02:55:38;;;;;;;2.33;1.60;;;1.70;99.90;;;;;;5033144;28;20041;-62
2024/01/12 02:58:04;;;;;;;3.65;1.83;;;1.70;99.90;;;;;;5033133;28;20474;-62
2024/01/12 03:00:30;;;;;;;2.13;1.73;;;1.70;99.90;;;;;;5033052;28;20044;-62
2024/01/12 03:02:56;;;;;;;1.85;1.58;;;1.60;99.90;;;;;;5032918;28;20100;-62
2024/01/12 03:05:22;;;;;;;3.60;1.67;;;1.80;99.90;;;;;;5032693;28;20045;-62
2024/01/12 03:07:48;;;;;;;2.53;1.98;;;1.60;99.90;;;;;;5032857;28;20221;-62
2024/01/12 03:10:16;;;;;;;2.95;1.67;;;1.60;99.90;;;;;;5032898;28;20046;-62
2024/01/12 03:12:42;;;;;;;2.10;1.65;;;1.70;99.90;;;;;;5032988;28;20399;-62
2024/01/12 03:15:08;;;;;;;1.75;1.40;;;1.70;99.90;;;;;;5032623;28;20112;-62
2024/01/12 03:17:34;;;;;;;2.10;1.90;;;1.70;99.90;;;;;;5032752;28;20044;-68
2024/01/12 03:19:59;;;;;;;1.95;1.67;;;1.60;99.90;;;;;;5014952;28;20113;-67
2024/01/12 03:22:25;;;;;;;1.73;1.50;;;1.60;99.90;;;;;;5032616;28;20481;-69
2024/01/12 03:25:04;;;;;;;2.90;2.08;;;2.00;99.90;;;;;;5035502;28;20061;-67
2024/01/12 03:27:36;;;;;;;1.63;1.50;;;1.70;99.90;;;;;;5018674;28;20068;-67
2024/01/12 03:30:02;;;;;;;2.88;1.80;;;1.70;99.90;;;;;;5036745;28;20037;-67
2024/01/12 03:32:28;;;;;;;2.50;1.75;;;1.60;99.90;;;;;;5036810;28;20044;-68
2024/01/12 03:34:53;;;;;;;1.92;1.67;;;1.70;99.90;;;;;;5018749;28;20037;-68
2024/01/12 03:37:19;;;;;;;3.22;1.80;;;1.60;99.90;;;;;;5018816;28;20539;-67
2024/01/12 03:39:45;;;;;;;2.33;1.67;;;1.70;99.90;;;;;;5036359;28;20140;-67
2024/01/12 03:42:11;;;;;;;3.70;2.13;;;1.60;99.90;;;;;;5018854;28;20497;-67
2024/01/12 03:44:36;;;;;;;2.28;1.55;;;1.70;99.90;;;;;;5036378;28;20041;-68
2024/01/12 03:47:02;;;;;;;1.50;1.40;;;1.50;99.90;;;;;;5018581;28;20087;-68
2024/01/12 03:49:27;;;;;;;3.10;2.00;;;1.50;99.90;;;;;;5018566;28;20042;-68
2024/01/12 03:51:57;;;;;;;2.53;2.03;;;1.40;99.90;;;;;;5036021;28;20081;-68
2024/01/12 03:54:23;;;;;;;2.22;1.70;;;1.30;99.90;;;;;;5036349;28;20037;-67
2024/01/12 03:56:50;;;;;;;2.50;1.40;;;1.20;99.90;;;;;;5018371;28;20041;-67
2024/01/12 03:59:15;;;;;;;1.58;1.45;;;1.10;99.90;;;;;;5036364;28;20077;-68
2024/01/12 04:01:45;;;;;;;1.50;1.38;;;1.40;99.90;;;;;;5018315;28;20120;-68
2024/01/12 04:04:12;;;;;;;2.83;1.67;;;0.90;99.90;;;;;;5035927;28;20396;-68
2024/01/12 04:06:39;;;;;;;1.48;1.38;;;0.80;99.90;;;;;;5018177;28;20120;-67
2024/01/12 04:09:04;;;;;;;3.65;2.05;;;0.80;99.90;;;;;;5018573;28;20033;-67
2024/01/12 04:11:30;;;;;;;1.67;1.58;;;0.70;99.90;;;;;;5036101;28;20056;-67
2024/01/12 04:13:56;;;;;;;2.08;1.60;;;0.70;99.90;;;;;;5036036;28;20069;-67
2024/01/12 04:16:21;;;;;;;2.03;1.38;;;0.70;99.90;;;;;;5035943;28;20549;-68
2024/01/12 04:18:47;;;;;;;2.08;1.63;;;0.70;99.90;;;;;;5035974;28;20171;-68
2024/01/12 04:21:13;;;;;;;3.30;2.13;;;0.80;99.90;;;;;;5017864;28;20052;-67
2024/01/12 04:23:39;;;;;;;2.25;1.58;;;0.80;99.90;;;;;;5034356;28;20183;-68
2024/01/12 04:26:11;;;;;;;1.92;1.60;;;0.90;99.90;;;;;;5035141;28;20587;-67
2024/01/12 04:28:37;;;;;;;2.65;1.80;;;1.00;99.90;;;;;;5017767;28;20049;-62
2024/01/12 04:31:03;;;;;;;1.88;1.58;;;1.00;99.90;;;;;;5035588;28;20542;-62
2024/01/12 04:33:33;;;;;;;3.10;1.73;;;1.00;99.90;;;;;;5035518;28;20401;-62
2024/01/12 04:35:59;;;;;;;1.90;1.50;;;1.10;99.90;;;;;;5016872;28;20408;-62
2024/01/12 04:38:26;;;;;;;2.80;1.60;;;1.20;99.90;;;;;;5035614;28;20037;-62
2024/01/12 04:40:52;;;;;;;2.00;1.60;;;1.30;99.90;;;;;;5035551;28;20048;-62
2024/01/12 04:43:18;;;;;;;2.13;1.65;;;1.40;99.90;;;;;;5035475;28;20124;-62
2024/01/12 04:45:44;;;;;;;3.08;1.50;;;1.40;99.90;;;;;;5035343;28;20138;-62
2024/01/12 04:48:09;;;;;;;1.92;1.65;;;2.20;99.90;;;;;;5035533;28;20047;-59
2024/01/12 04:50:35;;;;;;;2.03;1.70;;;1.40;99.90;;;;;;5017235;28;20490;-60
2024/01/12 04:53:01;;;;;;;1.50;1.40;;;1.50;99.90;;;;;;5035316;28;20465;-60
2024/01/12 04:55:27;;;;;;;1.98;1.45;;;1.50;99.90;;;;;;5017503;28;20045;-59
2024/01/12 04:57:53;;;;;;;3.17;1.75;;;1.60;99.90;;;;;;5017244;28;20089;-59
2024/01/12 05:00:19;;;;;;;2.53;1.83;;;1.50;99.90;;;;;;5001102;28;20091;-60
2024/01/12 05:02:45;;;;;;;3.65;1.85;;;1.60;99.90;;;;;;5035033;28;20554;-59
2024/01/12 05:05:11;;;;;;;3.00;1.70;;;1.60;99.90;;;;;;5034779;28;20076;-59
2024/01/12 05:07:36;;;;;;;3.15;1.77;;;1.60;99.90;;;;;;5000839;28;20040;-59
2024/01/12 05:10:04;;;;;;;3.08;1.77;;;1.70;99.90;;;;;;5034668;28;20560;-59
2024/01/12 05:12:29;;;;;;;2.28;1.80;;;1.70;99.90;;;;;;5017215;28;20041;-59
2024/01/12 05:14:55;;;;;;;2.20;1.60;;;1.80;99.90;;;;;;5034604;28;20048;-59
2024/01/12 05:17:22;;;;;;;2.95;1.70;;;1.80;99.90;;;;;;5034853;28;20045;-60
2024/01/12 05:19:48;;;;;;;1.98;1.55;;;1.80;99.90;;;;;;5017019;28;20038;-60
2024/01/12 05:22:14;;;;;;;1.88;1.50;;;1.80;99.90;;;;;;5034768;28;20041;-60
2024/01/12 05:24:46;;;;;;;2.17;1.60;;;1.80;99.90;;;;;;5034066;28;20494;-60
2024/01/12 05:27:25;;;;;;;2.65;1.60;;;1.80;99.90;;;;;;5034651;28;20045;-60
2024/01/12 05:29:50;;;;;;;3.40;1.85;;;1.80;99.90;;;;;;5034220;28;20087;-60
2024/01/12 05:32:16;;;;;;;2.90;1.63;;;1.80;99.90;;;;;;5034520;28;20034;-60
2024/01/12 05:34:42;;;;;;;4.00;1.88;;;1.70;99.90;;;;;;5034511;28;20033;-59
2024/01/12 05:37:07;;;;;;;2.95;1.83;;;1.80;99.90;;;;;;5016406;28;20110;-60
2024/01/12 05:39:33;;;;;;;1.58;1.38;;;1.70;99.90;;;;;;5016556;28;20077;-67
2024/01/12 05:41:58;;;;;;;3.30;1.73;;;1.80;99.90;;;;;;5016674;28;20639;-67
2024/01/12 05:44:24;;;;;;;2.38;1.73;;;1.80;99.90;;;;;;5016337;28;20048;-68
2024/01/12 05:46:50;;;;;;;3.28;1.88;;;1.70;99.90;;;;;;5015505;28;20052;-68
2024/01/12 05:49:16;;;;;;;1.63;1.52;;;1.70;99.90;;;;;;5033924;28;20566;-68
2024/01/12 05:51:41;;;;;;;2.55;1.52;;;1.70;99.90;;;;;;5016149;28;20481;-67
2024/01/12 05:54:07;;;;;;;2.47;1.85;;;1.70;99.90;;;;;;5016467;28;20045;-67
2024/01/12 05:56:32;;;;;;;3.83;2.13;;;1.70;99.90;;;;;;5033822;28;20045;-66
2024/01/12 05:58:58;;;;;;;2.42;1.58;;;2.00;99.90;;;;;;5033914;28;20045;-65
2024/01/12 06:01:24;;;;;;;2.13;1.67;;;1.70;99.90;;;;;;5033936;28;20044;-65
2024/01/12 06:03:49;;;;;;;1.77;1.60;;;1.60;99.90;;;;;;5033864;28;20048;-66
2024/01/12 06:06:15;;;;;;;1.90;1.60;;;1.70;99.90;;;;;;5033891;28;20037;-65
2024/01/12 06:08:41;;;;;;;1.98;1.65;;;1.70;99.90;;;;;;5033638;28;20041;-65
2024/01/12 06:11:06;;;;;;;2.42;1.65;;;1.60;99.90;;;;;;5033746;28;20037;-65
2024/01/12 06:13:32;;;;;;;2.42;1.70;;;1.60;99.90;;;;;;5033484;28;20045;-65
2024/01/12 06:15:58;;;;;;;2.00;1.90;;;1.60;99.90;;;;;;5033797;28;20076;-66
2024/01/12 06:18:24;;;;;;;3.05;2.08;;;1.60;99.90;;;;;;5033668;28;20048;-65
2024/01/12 06:20:49;;;;;;;2.08;1.70;;;2.10;99.90;;;;;;5033443;28;20572;-66
2024/01/12 06:23:15;;;;;;;3.95;2.00;;;1.60;99.90;;;;;;5033327;28;20508;-66
2024/01/12 06:25:47;;;;;;;4.18;2.10;;;1.60;99.90;;;;;;5015213;28;20049;-65
2024/01/12 06:28:13;;;;;;;3.15;1.60;;;1.60;99.90;;;;;;5033296;28;20073;-65
2024/01/12 06:30:39;;;;;;;3.00;2.05;;;1.60;99.90;;;;;;5015508;28;20083;-66
2024/01/12 06:33:05;;;;;;;3.72;1.83;;;2.10;99.90;;;;;;5033439;28;20498;-66
2024/01/12 06:35:30;;;;;;;3.47;2.20;;;1.60;99.90;;;;;;5033166;28;20075;-66
2024/01/12 06:37:57;;;;;;;2.65;1.73;;;1.60;99.90;;;;;;5033406;28;20108;-66
2024/01/12 06:40:23;;;;;;;2.78;2.10;;;1.60;99.90;;;;;;5015310;28;20049;-67
2024/01/12 06:42:48;;;;;;;2.05;1.60;;;1.60;99.90;;;;;;5032986;28;20041;-68
2024/01/12 06:45:14;;;;;;;3.58;2.10;;;2.10;99.90;;;;;;5033327;28;20176;-64
2024/01/12 06:47:40;;;;;;;3.85;2.33;;;1.60;99.90;;;;;;5033203;28;20045;-65
2024/01/12 06:50:06;;;;;;;5.35;2.17;;;1.80;99.90;;;;;;5015288;28;20045;-60
2024/01/12 06:52:33;;;;;;;7.07;2.60;;;1.70;99.90;;;;;;5033224;28;20048;-60
2024/01/12 06:54:59;;;;;;;3.33;2.47;;;1.70;99.90;;;;;;5033245;28;20040;-60
2024/01/12 06:57:24;;;;;;;2.25;2.00;;;1.70;99.90;;;;;;5031679;28;20040;-60
2024/01/12 06:59:50;;;;;;;4.13;2.28;;;1.70;99.90;;;;;;5032796;28;20120;-60
2024/01/12 07:02:16;;;;;;;4.18;2.40;;;1.80;99.90;;;;;;5032885;28;20483;-62
2024/01/12 07:04:41;;;;;;;4.57;2.40;;;1.70;99.90;;;;;;5033053;28;20068;-62
2024/01/12 07:07:09;;;;;;;8.07;2.95;;;1.80;99.90;;;;;;5032932;28;20041;-63
2024/01/12 07:09:35;;;;;;;4.25;2.63;;;1.70;99.90;;;;;;5033050;28;20108;-62
2024/01/12 07:12:01;;;;;;;5.85;3.72;;;1.70;99.90;;;;;;5032612;28;20033;-62
2024/01/12 07:14:26;;;;;;;3.63;2.15;;;1.80;99.90;;;;;;5032989;28;20041;-64
2024/01/12 07:16:52;;;;;;;8.63;2.78;;;1.80;99.90;;;;;;5032886;28;20504;-63
2024/01/12 07:19:18;;;;;;;3.63;2.53;;;1.80;99.90;;;;;;5014986;28;20046;-63
2024/01/12 07:21:43;;;;;;;2.85;1.95;;;1.80;99.90;;;;;;5032862;28;20037;-63
2024/01/12 07:24:09;;;;;;;6.18;2.22;;;1.80;99.90;;;;;;5032507;28;20124;-63
2024/01/12 07:26:35;;;;;;;4.32;1.90;;;1.90;99.90;;;;;;4998745;28;20108;-62
2024/01/12 07:29:07;;;;;;;2.50;1.77;;;1.90;99.90;;;;;;5013016;28;20409;-62
2024/01/12 07:31:35;;;;;;;2.33;1.95;;;1.90;99.90;;;;;;4995261;28;20045;-62
2024/01/12 07:34:02;;;;;;;2.00;1.80;;;1.90;99.90;;;;;;4995191;28;20073;-62
2024/01/12 07:36:28;;;;;;;2.70;1.67;;;1.90;99.90;;;;;;5013111;28;20555;-63
2024/01/12 07:38:54;;;;;;;4.82;2.35;;;1.90;99.90;;;;;;5013032;28;20509;-62
2024/01/12 07:41:19;;;;;;;3.20;1.50;;;1.90;99.90;;;;;;5012729;28;20053;-65
2024/01/12 07:43:45;;;;;;;3.03;1.90;;;1.90;99.90;;;;;;4995376;28;20132;-62
2024/01/12 07:46:18;;;;;;;2.40;1.58;;;1.90;99.90;;;;;;5012657;28;20129;-62
2024/01/12 07:48:49;;;;;;;2.45;2.00;;;1.90;99.90;;;;;;5012940;28;20042;-62
2024/01/12 07:51:15;;;;;;;3.97;2.17;;;1.90;99.90;;;;;;4994962;28;20050;-62
2024/01/12 07:53:41;;;;;;;2.85;1.60;;;1.90;99.90;;;;;;4995044;28;20042;-62
2024/01/12 07:56:07;;;;;;;2.42;1.58;;;1.90;99.90;;;;;;5012741;28;20030;-62
2024/01/12 07:58:33;;;;;;;3.40;1.80;;;1.90;99.90;;;;;;5012718;28;20500;-62
2024/01/12 08:00:59;;;;;;;2.58;1.70;;;1.90;99.90;;;;;;4995257;28;20077;-62
2024/01/12 08:03:24;;;;;;;1.95;1.65;;;1.90;99.90;;;;;;5012817;28;20077;-62
2024/01/12 08:05:51;;;;;;;3.03;1.90;;;1.90;99.90;;;;;;5012835;28;20041;-62
2024/01/12 08:08:18;;;;;;;2.00;1.80;;;1.90;99.90;;;;;;4994813;28;20092;-62
2024/01/12 08:10:44;;;;;;;2.38;1.63;;;2.50;99.90;;;;;;5013899;28;20095;-65
2024/01/12 08:13:10;;;;;;;1.70;1.60;;;2.40;99.90;;;;;;4998316;28;20057;-66
2024/01/12 08:15:35;;;;;;;2.33;1.70;;;1.90;99.90;;;;;;5016060;28;20386;-65
2024/01/12 08:18:01;;;;;;;3.85;2.03;;;1.90;99.90;;;;;;5015891;28;20045;-65
2024/01/12 08:20:27;;;;;;;3.92;2.10;;;1.90;99.90;;;;;;5015780;28;20347;-65
2024/01/12 08:22:52;;;;;;;3.40;1.80;;;2.00;99.90;;;;;;5015730;28;20034;-65
2024/01/12 08:25:31;;;;;;;3.92;1.95;;;1.90;99.90;;;;;;5003056;28;20115;-66
2024/01/12 08:28:04;;;;;;;2.15;1.67;;;2.00;99.90;;;;;;5035782;28;20052;-65
2024/01/12 08:30:29;;;;;;;2.08;1.60;;;2.00;99.90;;;;;;5035407;28;20046;-65
2024/01/12 08:32:55;;;;;;;3.72;2.05;;;2.00;99.90;;;;;;5018007;28;20489;-65
2024/01/12 08:35:21;;;;;;;1.75;1.63;;;2.10;99.90;;;;;;5035210;28;20041;-65
2024/01/12 08:37:46;;;;;;;3.22;1.85;;;2.00;99.90;;;;;;5035396;28;20033;-66
2024/01/12 08:40:12;;;;;;;1.92;1.73;;;2.10;99.90;;;;;;5017560;28;20362;-66
2024/01/12 08:42:39;;;;;;;2.83;1.80;;;2.10;99.90;;;;;;5035439;28;20473;-65
2024/01/12 08:45:05;;;;;;;3.45;1.75;;;2.10;99.90;;;;;;5035207;28;20475;-65
2024/01/12 08:47:31;;;;;;;2.90;1.90;;;2.10;99.90;;;;;;5035456;28;20041;-64
2024/01/12 08:49:58;;;;;;;3.03;1.90;;;2.10;99.90;;;;;;5034998;28;20542;-65
2024/01/12 08:52:24;;;;;;;2.38;1.75;;;2.10;99.90;;;;;;5035325;28;20404;-63
2024/01/12 08:54:50;;;;;;;1.77;1.50;;;2.20;99.90;;;;;;5034971;28;20052;-64
2024/01/12 08:57:15;;;;;;;1.90;1.55;;;2.20;99.90;;;;;;5034871;28;20033;-64
2024/01/12 08:59:41;;;;;;;1.88;1.67;;;2.30;99.90;;;;;;5017126;28;20090;-64
2024/01/12 09:02:07;;;;;;;4.35;1.77;;;2.30;99.90;;;;;;5035163;28;20041;-64
2024/01/12 09:04:34;;;;;;;2.13;1.67;;;2.70;99.90;;;;;;5035030;28;20427;-65
2024/01/12 09:07:00;;;;;;;2.60;1.70;;;2.30;99.90;;;;;;5035069;28;20053;-64
2024/01/12 09:09:26;;;;;;;3.40;1.92;;;2.10;99.90;;;;;;5035045;28;20033;-64
2024/01/12 09:11:52;;;;;;;1.77;1.45;;;2.30;99.90;;;;;;5034492;28;20046;-64
2024/01/12 09:14:17;;;;;;;2.35;1.50;;;2.40;99.90;;;;;;5034482;28;20091;-64
2024/01/12 09:16:43;;;;;;;2.53;1.63;;;2.40;99.90;;;;;;5034749;28;20046;-64
2024/01/12 09:19:09;;;;;;;2.65;1.88;;;2.50;99.90;;;;;;5034859;28;20124;-61
2024/01/12 09:21:35;;;;;;;4.55;2.13;;;2.50;99.90;;;;;;5034426;28;20037;-60
2024/01/12 09:24:00;;;;;;;2.58;1.52;;;2.50;99.90;;;;;;5016612;28;20125;-60
2024/01/12 09:26:33;;;;;;;2.35;1.52;;;2.60;99.90;;;;;;5034049;28;20057;-60
2024/01/12 09:28:58;;;;;;;2.90;1.90;;;2.50;99.90;;;;;;5034586;28;20041;-59
2024/01/12 09:31:24;;;;;;;2.38;1.60;;;2.70;99.90;;;;;;5016533;28;20486;-60
2024/01/12 09:33:51;;;;;;;3.65;1.80;;;2.80;99.90;;;;;;5016421;28;20041;-61
2024/01/12 09:36:17;;;;;;;2.63;1.60;;;2.90;99.90;;;;;;5016270;28;20099;-60
2024/01/12 09:38:42;;;;;;;2.95;1.60;;;2.70;99.90;;;;;;5034077;28;20041;-60
2024/01/12 09:41:09;;;;;;;2.22;1.60;;;3.20;99.90;;;;;;5016242;28;20063;-60
2024/01/12 09:43:36;;;;;;;3.72;1.60;;;2.80;99.90;;;;;;5032895;28;20037;-61
2024/01/12 09:46:06;;;;;;;2.10;1.50;;;2.80;99.90;;;;;;5032894;28;20037;-59
2024/01/12 09:48:33;;;;;;;2.50;1.40;;;2.90;99.90;;;;;;5034265;28;20131;-59
2024/01/12 09:50:59;;;;;;;1.38;1.20;;;;;;;;;;5033823;28;20049;-60
2024/01/12 09:53:25;;;;;;;1.92;1.35;;;2.80;99.90;;;;;;5033781;28;20045;-59
2024/01/12 09:55:50;;;;;;;2.55;1.67;;;3.70;99.90;;;;;;5033848;28;20096;-60
2024/01/12 09:58:21;;;;;;;4.07;1.65;;;3.20;99.90;;;;;;5034023;28;20116;-60
2024/01/12 10:00:50;;;;;;;2.40;1.70;;;3.10;99.90;;;;;;5016307;28;20397;-61
2024/01/12 10:03:17;;;;;;;2.22;1.45;;;;;;;;;;5016276;28;20478;-60
2024/01/12 10:05:44;;;;;;;2.13;1.83;;;;;;;;;;5033662;28;20041;-60
2024/01/12 10:08:10;;;;;;;2.60;1.63;;;;;;;;;;5033796;28;20436;-60
2024/01/12 10:10:36;;;;;;;3.05;1.95;;;;;;;;;;5015819;28;20409;-60
2024/01/12 10:13:03;;;;;;;2.83;1.73;;;;;;;;;;5016100;28;20041;-60
2024/01/12 10:15:32;;;;;;;1.75;1.33;;;;;;;;;;5015900;28;20033;-60
2024/01/12 10:17:58;;;;;;;3.83;2.03;;;;;;;;;;5015825;28;20434;-60
2024/01/12 10:20:24;;;;;;;2.47;1.52;;;;;;;;;;5015681;28;20084;-72
2024/01/12 10:22:57;;;;;;;2.03;1.40;;;;;;;;;;5015743;28;20050;-71
2024/01/12 10:25:30;;;;;;;2.50;1.38;;;;;;;;;;5015283;28;20061;-72
2024/01/12 10:28:17;;;;;;;2.25;1.60;;;;;;;;;;5033498;28;20045;-72
2024/01/12 10:30:43;;;;;;;3.80;1.70;;;;;;;;;;5033308;28;20431;-72
2024/01/12 10:33:09;;;;;;;3.45;1.73;;;;;;;;;;5032609;28;20050;-72
2024/01/12 10:35:35;;;;;;;1.83;1.30;;;;;;;;;;5015439;28;20085;-72
2024/01/12 10:38:01;;;;;;;2.20;1.42;;;;;;;;;;5033134;28;20045;-72
2024/01/12 10:40:28;;;;;;;2.60;1.35;;;;;;;;;;5033173;28;20052;-71
2024/01/12 10:42:57;;;;;;;1.58;1.45;;;;;;;;;;5015686;28;20050;-72
2024/01/12 10:45:25;;;;;;;2.53;1.35;;;;;;;;;;5033303;28;20099;-72
2024/01/12 10:48:03;;;;;;;4.50;1.40;;;3.90;99.90;;;;;;5015367;28;20061;-72
2024/01/12 10:50:42;;;;;;;3.60;1.55;;;3.90;99.90;;;;;;5015218;28;20037;-72
2024/01/12 10:53:20;;;;;;;2.28;1.52;;;3.90;99.90;;;;;;5032941;28;20052;-72
2024/01/12 10:55:53;;;;;;;3.58;1.80;;;4.30;99.90;;;;;;5032925;28;20456;-73
2024/01/12 10:58:19;;;;;;;2.85;1.17;;;4.00;99.90;;;;;;5032896;28;20033;-71
2024/01/12 11:00:46;;;;;;;2.30;1.33;;;4.00;99.90;;;;;;5032803;28;20505;-72
2024/01/12 11:03:15;;;;;;;3.35;1.63;;;4.10;99.90;;;;;;5015128;28;20041;-71
2024/01/12 11:05:43;;;;;;;2.35;1.40;;;4.40;99.90;;;;;;5015259;28;20052;-71
2024/01/12 11:08:11;;;;;;;3.17;1.50;;;4.10;99.90;;;;;;5015142;28;20053;-72
2024/01/12 11:10:42;;;;;;;3.45;1.38;;;4.20;99.90;;;;;;5014849;28;20457;-72
2024/01/12 11:13:13;;;;;;;3.15;1.80;;;4.20;99.90;;;;;;5015354;28;20052;-71
2024/01/12 11:15:40;;;;;;;4.20;1.70;;;4.30;99.90;;;;;;5032735;28;20053;-71
2024/01/12 11:18:07;;;;;;;5.43;1.70;;;4.30;99.90;;;;;;5015222;28;20501;-71
2024/01/12 11:20:33;;;;;;;2.38;1.30;;;4.30;99.90;;;;;;5032925;28;20051;-71
2024/01/12 11:22:59;;;;;;;2.75;1.45;;;4.30;99.90;;;;;;5015211;28;20049;-71
2024/01/12 11:25:31;;;;;;;2.15;1.17;;;4.30;99.90;;;;;;5013609;28;20068;-72
2024/01/12 11:28:14;;;;;;;1.90;1.13;;;4.40;99.90;;;;;;5031893;28;20056;-71
2024/01/12 11:30:41;;;;;;;2.83;1.33;;;4.60;99.90;;;;;;5031712;28;20046;-63
2024/01/12 11:33:08;;;;;;;2.17;1.40;;;4.40;99.90;;;;;;5031568;28;20096;-64
2024/01/12 11:35:37;;;;;;;2.10;1.38;;;4.40;99.90;;;;;;5031939;28;20033;-63
2024/01/12 11:38:09;;;;;;;2.63;1.50;;;4.40;99.90;;;;;;5014145;28;20481;-63
2024/01/12 11:40:36;;;;;;;3.33;1.42;;;4.40;99.90;;;;;;5031741;28;20038;-63
2024/01/12 11:43:02;;;;;;;1.90;1.48;;;4.40;99.90;;;;;;5013939;28;20088;-63
2024/01/12 11:45:29;;;;;;;2.28;1.38;;;4.40;99.90;;;;;;5033843;28;20037;-63
2024/01/12 11:47:55;;;;;;;4.43;1.15;;;4.50;99.90;;;;;;5017614;28;20076;-63
2024/01/12 11:50:24;;;;;;;4.93;1.73;;;4.40;99.90;;;;;;5035258;28;20077;-64
2024/01/12 11:53:00;;;;;;;1.50;1.10;;;4.50;99.90;;;;;;5035503;28;20037;-63
2024/01/12 11:55:26;;;;;;;2.08;0.90;;;4.40;99.90;;;;;;5017453;28;20051;-63
2024/01/12 11:57:53;;;;;;;1.65;1.25;;;4.60;99.90;;;;;;5035331;28;20109;-64
2024/01/12 12:00:20;;;;;;;2.08;1.00;;;4.50;99.90;;;;;;5035148;28;20482;-62
2024/01/12 12:02:46;;;;;;;1.98;1.30;;;4.50;99.90;;;;;;5035208;28;20041;-63
2024/01/12 12:05:12;;;;;;;2.05;1.70;;;4.50;99.90;;;;;;5000996;28;20099;-63
2024/01/12 12:07:40;;;;;;;1.75;1.02;;;4.50;99.90;;;;;;5035228;28;20121;-63
2024/01/12 12:10:07;;;;;;;2.90;1.42;;;4.80;99.90;;;;;;5035255;28;20076;-64
2024/01/12 12:12:33;;;;;;;2.83;1.52;;;4.50;99.90;;;;;;5035165;28;20037;-63
2024/01/12 12:15:12;;;;;;;4.85;1.92;;;4.50;99.90;;;;;;5034892;28;20125;-63
2024/01/12 12:17:41;;;;;;;1.67;1.33;;;4.50;99.90;;;;;;5035125;28;20121;-63
2024/01/12 12:20:13;;;;;;;4.43;1.70;;;4.50;99.90;;;;;;5035088;28;20069;-63
2024/01/12 12:22:44;;;;;;;2.30;1.20;;;4.50;99.90;;;;;;5035064;28;20037;-63
2024/01/12 12:25:18;;;;;;;1.45;1.08;;;4.50;99.90;;;;;;5034769;28;20452;-63
2024/01/12 12:27:58;;;;;;;3.20;1.92;;;4.50;99.90;;;;;;5014763;28;20061;-63
2024/01/12 12:30:27;;;;;;;2.30;1.40;;;4.60;99.90;;;;;;5014987;28;20504;-63
2024/01/12 12:32:53;;;;;;;3.10;1.40;;;4.50;99.90;;;;;;5014673;28;20041;-63
2024/01/12 12:35:22;;;;;;;4.28;1.58;;;4.50;99.90;;;;;;5014736;28;20034;-61
2024/01/12 12:37:49;;;;;;;3.13;1.48;;;4.50;99.90;;;;;;4997159;28;20042;-62
2024/01/12 12:40:16;;;;;;;2.40;1.45;;;4.60;99.90;;;;;;5014999;28;20034;-59
2024/01/12 12:42:43;;;;;;;2.30;1.58;;;4.60;99.90;;;;;;5014614;28;20096;-59
2024/01/12 12:45:10;;;;;;;2.80;1.58;;;4.60;99.90;;;;;;5014605;28;20448;-59
2024/01/12 12:47:36;;;;;;;2.88;1.63;;;4.60;99.90;;;;;;4997173;28;20121;-59
2024/01/12 12:50:09;;;;;;;4.25;1.88;;;4.60;99.90;;;;;;5014832;28;20077;-59
2024/01/12 12:52:35;;;;;;;1.85;1.13;;;4.60;99.90;;;;;;4997042;28;20042;-59
2024/01/12 12:55:03;;;;;;;3.88;1.48;;;4.50;99.90;;;;;;4996788;28;20045;-59
2024/01/12 12:57:29;;;;;;;3.38;1.80;;;4.50;99.90;;;;;;5013746;28;20486;-59
2024/01/12 12:59:55;;;;;;;2.28;1.10;;;4.40;99.90;;;;;;5014339;28;20457;-59
2024/01/12 13:02:20;;;;;;;2.58;1.42;;;4.40;99.90;;;;;;5014263;28;20045;-60